createdAt,value
2016-10-24T00:00:07.784Z,11.40
2016-10-24T00:01:07.993Z,11.30
2016-10-24T00:02:07.499Z,11.38
2016-10-24T00:03:07.256Z,11.47
2016-10-24T00:04:07.744Z,11.28
2016-10-24T00:05:07.079Z,11.25
2016-10-24T00:06:07.837Z,11.35
2016-10-24T00:07:07.547Z,11.44
2016-10-24T00:08:08.119Z,11.40
2016-10-24T00:09:08.262Z,11.32
2016-10-24T00:10:08.563Z,11.19
2016-10-24T00:11:07.202Z,11.27
2016-10-24T00:12:07.867Z,11.34
2016-10-24T00:13:07.470Z,11.26
2016-10-24T00:14:08.017Z,11.23
2016-10-24T00:15:07.520Z,11.31
2016-10-24T00:16:08.168Z,11.45
2016-10-24T00:17:07.856Z,11.40
2016-10-24T00:18:07.546Z,11.31
2016-10-24T00:19:09.641Z,11.41
2016-10-24T00:20:07.318Z,11.38
2016-10-24T00:21:08.560Z,11.42
2016-10-24T00:22:07.350Z,11.41
2016-10-24T00:23:07.909Z,11.39
2016-10-24T00:24:07.403Z,11.31
2016-10-24T00:25:07.953Z,11.40
2016-10-24T00:26:07.480Z,11.40
2016-10-24T00:27:08.121Z,11.49
2016-10-24T00:28:07.614Z,11.39
2016-10-24T00:29:07.142Z,11.46
2016-10-24T00:30:07.637Z,11.48
2016-10-24T00:31:07.447Z,11.52
2016-10-24T00:32:08.027Z,11.57
2016-10-24T00:33:07.609Z,11.62
2016-10-24T00:34:07.088Z,11.60
2016-10-24T00:35:07.712Z,11.54
2016-10-24T00:36:07.338Z,11.50
2016-10-24T00:37:07.932Z,11.41
2016-10-24T00:38:07.426Z,11.43
2016-10-24T00:39:07.989Z,11.51
2016-10-24T00:40:07.507Z,11.47
2016-10-24T00:41:08.117Z,11.42
2016-10-24T00:42:07.774Z,11.38
2016-10-24T00:43:07.286Z,11.45
2016-10-24T00:44:08.140Z,11.40
2016-10-24T00:45:07.650Z,11.36
2016-10-24T00:46:07.475Z,11.34
2016-10-24T00:47:18.604Z,11.38
2016-10-24T00:48:07.790Z,11.33
2016-10-24T00:49:07.509Z,11.28
2016-10-24T00:50:08.092Z,11.30
2016-10-24T00:51:07.727Z,11.28
2016-10-24T00:52:07.225Z,11.36
2016-10-24T00:53:07.822Z,11.36
2016-10-24T00:54:07.425Z,11.41
2016-10-24T00:55:07.938Z,11.43
2016-10-24T00:56:07.496Z,11.37
2016-10-24T00:57:08.119Z,11.38
2016-10-24T00:58:07.676Z,11.34
2016-10-24T00:59:07.166Z,11.39
2016-10-24T01:00:07.835Z,11.33
2016-10-24T01:01:07.361Z,11.37
2016-10-24T01:02:07.837Z,11.45
2016-10-24T01:03:08.008Z,11.49
2016-10-24T01:04:07.589Z,11.39
2016-10-24T01:05:07.531Z,11.40
2016-10-24T01:06:07.171Z,11.36
2016-10-24T01:07:42.674Z,11.27
2016-10-24T01:08:07.290Z,11.26
2016-10-24T01:09:07.806Z,11.31
2016-10-24T01:10:07.246Z,11.42
2016-10-24T01:11:07.578Z,11.47
2016-10-24T01:12:07.289Z,11.45
2016-10-24T01:13:07.723Z,11.40
2016-10-24T01:14:08.063Z,11.44
2016-10-24T01:15:07.358Z,11.40
2016-10-24T01:16:08.008Z,11.43
2016-10-24T01:17:07.847Z,11.51
2016-10-24T01:18:07.789Z,11.48
2016-10-24T01:19:07.656Z,11.54
2016-10-24T01:20:07.100Z,11.40
2016-10-24T01:21:07.467Z,11.25
2016-10-24T01:22:08.071Z,11.34
2016-10-24T01:23:07.698Z,11.43
2016-10-24T01:24:07.779Z,11.42
2016-10-24T01:25:07.726Z,11.47
2016-10-24T01:26:07.301Z,11.44
2016-10-24T01:27:07.857Z,11.39
2016-10-24T01:28:07.440Z,11.41
2016-10-24T01:29:08.033Z,11.39
2016-10-24T01:30:07.729Z,11.43
2016-10-24T01:31:07.422Z,11.42
2016-10-24T01:32:08.240Z,11.48
2016-10-24T01:33:07.840Z,11.38
2016-10-24T01:34:07.515Z,11.28
2016-10-24T01:35:07.214Z,11.21
2016-10-24T01:36:07.957Z,11.34
2016-10-24T01:37:07.549Z,11.40
2016-10-24T01:38:08.064Z,11.45
2016-10-24T01:39:07.640Z,11.45
2016-10-24T01:40:07.185Z,11.35
2016-10-24T01:41:07.325Z,11.34
2016-10-24T01:42:07.956Z,11.39
2016-10-24T01:43:07.571Z,11.31
2016-10-24T01:44:07.071Z,11.39
2016-10-24T01:45:07.784Z,11.43
2016-10-24T01:46:07.318Z,11.44
2016-10-24T01:47:08.046Z,11.42
2016-10-24T01:48:07.226Z,11.42
2016-10-24T01:49:07.894Z,11.38
2016-10-24T01:50:07.478Z,11.49
2016-10-24T01:51:08.111Z,11.49
2016-10-24T01:52:07.694Z,11.36
2016-10-24T01:53:07.840Z,11.35
2016-10-24T01:54:08.319Z,11.33
2016-10-24T01:55:07.959Z,11.40
2016-10-24T01:56:10.142Z,11.48
2016-10-24T01:57:07.784Z,11.44
2016-10-24T01:58:07.661Z,11.37
2016-10-24T01:59:07.276Z,11.35
2016-10-24T02:00:07.898Z,11.35
2016-10-24T02:01:07.387Z,11.25
2016-10-24T02:02:08.172Z,11.29
2016-10-24T02:03:07.809Z,11.19
2016-10-24T02:04:07.435Z,11.24
2016-10-24T02:05:08.091Z,11.15
2016-10-24T02:06:07.669Z,11.09
2016-10-24T02:07:07.263Z,11.09
2016-10-24T02:08:07.679Z,11.13
2016-10-24T02:09:07.227Z,11.20
2016-10-24T02:10:07.727Z,11.29
2016-10-24T02:11:07.321Z,11.30
2016-10-24T02:12:07.567Z,11.37
2016-10-24T02:13:15.258Z,11.34
2016-10-24T02:14:08.062Z,11.23
2016-10-24T02:15:07.780Z,11.21
2016-10-24T02:16:07.292Z,11.23
2016-10-24T02:17:08.008Z,11.28
2016-10-24T02:18:07.751Z,11.32
2016-10-24T02:19:08.417Z,11.25
2016-10-24T02:20:08.051Z,11.26
2016-10-24T02:21:07.667Z,11.33
2016-10-24T02:22:07.316Z,11.18
2016-10-24T02:23:08.561Z,11.15
2016-10-24T02:24:07.430Z,11.13
2016-10-24T02:25:08.076Z,11.24
2016-10-24T02:26:07.653Z,11.22
2016-10-24T02:27:07.156Z,11.12
2016-10-24T02:28:07.666Z,11.15
2016-10-24T02:29:07.487Z,11.25
2016-10-24T02:30:08.096Z,11.25
2016-10-24T02:31:07.691Z,11.15
2016-10-24T02:32:07.208Z,11.14
2016-10-24T02:33:07.742Z,11.15
2016-10-24T02:34:07.299Z,11.18
2016-10-24T02:35:07.899Z,11.22
2016-10-24T02:36:07.473Z,11.29
2016-10-24T02:37:08.111Z,11.29
2016-10-24T02:38:08.433Z,11.29
2016-10-24T02:39:08.054Z,11.36
2016-10-24T02:40:07.616Z,11.38
2016-10-24T02:41:07.224Z,11.35
2016-10-24T02:42:07.894Z,11.31
2016-10-24T02:43:07.997Z,11.31
2016-10-24T02:44:07.693Z,11.21
2016-10-24T02:45:07.391Z,11.13
2016-10-24T02:46:08.439Z,11.19
2016-10-24T02:47:08.088Z,11.25
2016-10-24T02:48:07.715Z,11.26
2016-10-24T02:49:07.380Z,11.30
2016-10-24T02:50:07.946Z,11.19
2016-10-24T02:51:07.656Z,11.22
2016-10-24T02:52:08.575Z,11.27
2016-10-24T02:53:07.238Z,11.39
2016-10-24T02:54:07.769Z,11.23
2016-10-24T02:55:07.439Z,11.31
2016-10-24T02:56:08.130Z,11.17
2016-10-24T02:57:07.777Z,11.17
2016-10-24T02:58:07.439Z,11.24
2016-10-24T02:59:08.008Z,11.15
2016-10-24T03:00:08.187Z,11.22
2016-10-24T03:01:07.919Z,11.32
2016-10-24T03:02:08.163Z,11.23
2016-10-24T03:03:07.993Z,11.18
2016-10-24T03:04:07.607Z,11.19
2016-10-24T03:05:07.176Z,11.07
2016-10-24T03:06:07.805Z,10.93
2016-10-24T03:07:07.899Z,11.07
2016-10-24T03:08:07.463Z,11.10
2016-10-24T03:09:07.450Z,11.05
2016-10-24T03:10:07.981Z,11.06
2016-10-24T03:11:07.670Z,11.04
2016-10-24T03:12:07.406Z,11.16
2016-10-24T03:13:08.062Z,11.13
2016-10-24T03:14:07.636Z,11.06
2016-10-24T03:15:07.368Z,10.91
2016-10-24T03:16:07.901Z,11.03
2016-10-24T03:17:07.761Z,11.05
2016-10-24T03:18:07.327Z,11.15
2016-10-24T03:19:08.032Z,11.01
2016-10-24T03:20:07.609Z,11.06
2016-10-24T03:21:07.040Z,11.05
2016-10-24T03:22:07.721Z,10.90
2016-10-24T03:23:07.388Z,10.98
2016-10-24T03:24:08.530Z,11.10
2016-10-24T03:25:08.168Z,11.04
2016-10-24T03:26:07.834Z,10.96
2016-10-24T03:27:07.567Z,11.11
2016-10-24T03:28:07.090Z,11.09
2016-10-24T03:29:07.668Z,11.21
2016-10-24T03:30:07.293Z,11.20
2016-10-24T03:31:07.852Z,11.14
2016-10-24T03:32:07.588Z,11.16
2016-10-24T03:33:07.339Z,11.26
2016-10-24T03:34:07.825Z,11.12
2016-10-24T03:35:07.847Z,11.04
2016-10-24T03:36:07.482Z,11.10
2016-10-24T03:37:08.177Z,11.00
2016-10-24T03:38:07.274Z,11.10
2016-10-24T03:39:07.806Z,11.08
2016-10-24T03:40:08.144Z,11.25
2016-10-24T03:41:08.449Z,11.15
2016-10-24T03:42:09.182Z,11.06
2016-10-24T03:43:07.819Z,11.09
2016-10-24T03:44:07.511Z,11.10
2016-10-24T03:45:09.002Z,10.98
2016-10-24T03:46:08.047Z,10.98
2016-10-24T03:47:18.759Z,10.95
2016-10-24T03:48:07.414Z,10.87
2016-10-24T03:49:08.072Z,10.83
2016-10-24T03:50:07.655Z,10.90
2016-10-24T03:51:07.312Z,10.79
2016-10-24T03:52:07.849Z,10.87
2016-10-24T03:53:07.296Z,10.99
2016-10-24T03:54:07.487Z,10.96
2016-10-24T03:55:08.046Z,10.93
2016-10-24T03:56:07.777Z,10.91
2016-10-24T03:57:07.260Z,10.95
2016-10-24T03:58:07.800Z,10.94
2016-10-24T03:59:07.407Z,10.94
2016-10-24T04:00:08.041Z,10.94
2016-10-24T04:01:07.702Z,10.95
2016-10-24T04:02:07.285Z,10.96
2016-10-24T04:03:07.899Z,11.06
2016-10-24T04:04:07.563Z,11.10
2016-10-24T04:05:07.051Z,10.99
2016-10-24T04:06:07.432Z,10.94
2016-10-24T04:07:07.928Z,10.85
2016-10-24T04:08:07.960Z,10.94
2016-10-24T04:09:09.034Z,11.03
2016-10-24T04:10:07.665Z,10.84
2016-10-24T04:11:07.337Z,10.87
2016-10-24T04:12:07.940Z,10.82
2016-10-24T04:13:07.546Z,10.81
2016-10-24T04:14:08.242Z,10.95
2016-10-24T04:15:07.921Z,10.96
2016-10-24T04:16:07.685Z,10.97
2016-10-24T04:17:07.401Z,10.91
2016-10-24T04:18:08.031Z,10.76
2016-10-24T04:19:07.660Z,10.71
2016-10-24T04:20:07.293Z,10.73
2016-10-24T04:21:07.863Z,10.74
2016-10-24T04:22:08.023Z,10.65
2016-10-24T04:23:07.911Z,10.73
2016-10-24T04:24:07.472Z,10.71
2016-10-24T04:25:10.773Z,10.75
2016-10-24T04:26:08.073Z,10.83
2016-10-24T04:27:07.853Z,10.86
2016-10-24T04:28:07.592Z,10.78
2016-10-24T04:29:07.233Z,10.72
2016-10-24T04:30:08.236Z,10.45
2016-10-24T04:31:07.881Z,10.55
2016-10-24T04:32:07.588Z,10.63
2016-10-24T04:33:07.175Z,10.57
2016-10-24T04:34:08.268Z,10.56
2016-10-24T04:35:07.852Z,10.62
2016-10-24T04:36:07.331Z,10.63
2016-10-24T04:37:08.009Z,10.55
2016-10-24T04:38:07.983Z,10.45
2016-10-24T04:39:07.671Z,10.52
2016-10-24T04:40:07.339Z,10.56
2016-10-24T04:41:09.356Z,10.54
2016-10-24T04:42:07.890Z,10.62
2016-10-24T04:43:08.526Z,10.68
2016-10-24T04:44:08.143Z,10.78
2016-10-24T04:45:07.639Z,10.77
2016-10-24T04:46:07.259Z,10.76
2016-10-24T04:47:07.834Z,10.56
2016-10-24T04:48:07.374Z,10.68
2016-10-24T04:49:08.030Z,10.72
2016-10-24T04:50:07.781Z,10.72
2016-10-24T04:51:07.391Z,10.73
2016-10-24T04:52:07.973Z,10.55
2016-10-24T04:53:07.637Z,10.49
2016-10-24T04:54:07.579Z,10.51
2016-10-24T04:55:07.252Z,10.53
2016-10-24T04:56:08.000Z,10.43
2016-10-24T04:57:08.478Z,10.35
2016-10-24T04:58:10.525Z,10.39
2016-10-24T04:59:08.377Z,10.40
2016-10-24T05:00:07.556Z,10.51
2016-10-24T05:01:07.283Z,10.57
2016-10-24T05:02:07.912Z,10.51
2016-10-24T05:03:07.591Z,10.51
2016-10-24T05:04:07.940Z,10.63
2016-10-24T05:05:07.718Z,10.68
2016-10-24T05:06:07.311Z,10.65
2016-10-24T05:07:07.374Z,10.69
2016-10-24T05:08:08.027Z,10.56
2016-10-24T05:09:07.937Z,10.37
2016-10-24T05:10:07.561Z,10.27
2016-10-24T05:11:08.160Z,10.20
2016-10-24T05:12:07.845Z,10.14
2016-10-24T05:13:08.077Z,10.24
2016-10-24T05:14:07.755Z,10.31
2016-10-24T05:15:08.613Z,10.40
2016-10-24T05:16:17.274Z,10.48
2016-10-24T05:17:07.385Z,10.47
2016-10-24T05:18:08.043Z,10.28
2016-10-24T05:19:07.588Z,10.40
2016-10-24T05:20:07.283Z,10.37
2016-10-24T05:21:08.305Z,10.32
2016-10-24T05:22:07.998Z,10.34
2016-10-24T05:23:07.800Z,10.32
2016-10-24T05:24:07.292Z,10.25
2016-10-24T05:25:07.888Z,10.34
2016-10-24T05:26:07.402Z,10.20
2016-10-24T05:27:07.940Z,10.20
2016-10-24T05:28:07.517Z,10.20
2016-10-24T05:29:08.118Z,10.16
2016-10-24T05:30:07.702Z,10.12
2016-10-24T05:31:07.307Z,9.96
2016-10-24T05:32:07.897Z,10.06
2016-10-24T05:33:07.461Z,10.16
2016-10-24T05:34:08.027Z,10.03
2016-10-24T05:35:07.587Z,10.01
2016-10-24T05:36:07.247Z,9.95
2016-10-24T05:37:07.810Z,9.95
2016-10-24T05:38:07.387Z,10.17
2016-10-24T05:39:08.883Z,10.10
2016-10-24T05:40:07.552Z,10.16
2016-10-24T05:41:07.485Z,10.11
2016-10-24T05:42:07.413Z,10.12
2016-10-24T05:43:07.894Z,10.12
2016-10-24T05:44:07.899Z,10.12
2016-10-24T05:45:07.575Z,10.21
2016-10-24T05:46:07.123Z,10.27
2016-10-24T05:47:07.667Z,10.22
2016-10-24T05:48:07.154Z,10.24
2016-10-24T05:49:07.670Z,10.37
2016-10-24T05:50:07.357Z,10.40
2016-10-24T05:51:07.919Z,10.50
2016-10-24T05:52:07.492Z,10.61
2016-10-24T05:53:08.112Z,10.54
2016-10-24T05:54:07.637Z,10.65
2016-10-24T05:55:07.161Z,10.61
2016-10-24T05:56:07.853Z,10.70
2016-10-24T05:57:07.460Z,10.49
2016-10-24T05:58:07.953Z,10.55
2016-10-24T05:59:07.423Z,10.63
2016-10-24T06:00:08.064Z,10.55
2016-10-24T06:01:07.661Z,10.46
2016-10-24T06:02:07.447Z,10.58
2016-10-24T06:03:08.006Z,10.39
2016-10-24T06:04:07.681Z,10.31
2016-10-24T06:05:07.240Z,10.38
2016-10-24T06:06:07.888Z,10.56
2016-10-24T06:07:07.475Z,10.60
2016-10-24T06:08:08.157Z,10.51
2016-10-24T06:09:08.233Z,10.37
2016-10-24T06:10:08.102Z,10.41
2016-10-24T06:11:07.718Z,10.36
2016-10-24T06:12:07.275Z,10.49
2016-10-24T06:13:08.583Z,10.51
2016-10-24T06:14:07.415Z,10.60
2016-10-24T06:15:07.403Z,10.60
2016-10-24T06:16:08.091Z,10.64
2016-10-24T06:17:07.866Z,10.57
2016-10-24T06:18:07.500Z,10.54
2016-10-24T06:19:09.659Z,10.46
2016-10-24T06:20:07.522Z,10.50
2016-10-24T06:21:08.170Z,10.59
2016-10-24T06:22:07.814Z,10.56
2016-10-24T06:24:07.585Z,10.49
2016-10-24T06:24:12.873Z,10.38
2016-10-24T06:25:07.972Z,10.33
2016-10-24T06:26:07.686Z,10.34
2016-10-24T06:27:08.415Z,10.37
2016-10-24T06:28:08.755Z,10.45
2016-10-24T06:29:07.421Z,10.52
2016-10-24T06:30:07.554Z,10.67
2016-10-24T06:31:08.368Z,10.72
2016-10-24T06:32:07.883Z,10.67
2016-10-24T06:33:07.658Z,10.68
2016-10-24T06:34:07.364Z,10.74
2016-10-24T06:35:08.010Z,10.57
2016-10-24T06:36:07.675Z,10.51
2016-10-24T06:37:07.400Z,10.71
2016-10-24T06:38:08.168Z,10.80
2016-10-24T06:39:08.367Z,10.80
2016-10-24T06:40:07.966Z,10.76
2016-10-24T06:41:07.665Z,10.57
2016-10-24T06:42:07.314Z,10.63
2016-10-24T06:43:08.216Z,10.82
2016-10-24T06:44:08.177Z,10.87
2016-10-24T06:45:08.170Z,10.70
2016-10-24T06:46:08.747Z,10.73
2016-10-24T06:47:07.477Z,10.79
2016-10-24T06:48:08.530Z,10.81
2016-10-24T06:49:07.675Z,10.92
2016-10-24T06:50:07.176Z,11.03
2016-10-24T06:51:07.685Z,11.14
2016-10-24T06:52:07.333Z,11.04
2016-10-24T06:53:07.895Z,11.00
2016-10-24T06:54:07.755Z,11.09
2016-10-24T06:55:07.790Z,11.10
2016-10-24T06:56:07.951Z,11.10
2016-10-24T06:57:07.604Z,11.13
2016-10-24T06:58:07.209Z,11.13
2016-10-24T06:59:08.323Z,11.17
2016-10-24T07:00:07.910Z,11.20
2016-10-24T07:01:07.476Z,11.29
2016-10-24T07:02:08.063Z,11.14
2016-10-24T07:03:08.076Z,11.20
2016-10-24T07:04:07.784Z,11.23
2016-10-24T07:05:07.408Z,11.22
2016-10-24T07:06:08.153Z,11.34
2016-10-24T07:07:07.809Z,11.40
2016-10-24T07:08:07.972Z,11.29
2016-10-24T07:09:08.509Z,11.20
2016-10-24T07:10:08.541Z,11.28
2016-10-24T07:11:07.843Z,11.12
2016-10-24T07:12:07.751Z,11.18
2016-10-24T07:13:07.414Z,11.14
2016-10-24T07:14:08.397Z,11.18
2016-10-24T07:15:08.046Z,11.17
2016-10-24T07:16:07.822Z,11.18
2016-10-24T07:17:07.685Z,11.21
2016-10-24T07:18:07.493Z,11.26
2016-10-24T07:19:08.285Z,11.23
2016-10-24T07:20:07.870Z,11.24
2016-10-24T07:21:07.438Z,11.32
2016-10-24T07:22:07.977Z,11.34
2016-10-24T07:23:07.631Z,11.34
2016-10-24T07:24:07.287Z,11.33
2016-10-24T07:25:08.792Z,11.39
2016-10-24T07:26:07.831Z,11.40
2016-10-24T07:27:08.049Z,11.40
2016-10-24T07:28:07.807Z,11.42
2016-10-24T07:29:07.882Z,11.45
2016-10-24T07:30:07.548Z,11.47
2016-10-24T07:31:07.458Z,11.45
2016-10-24T07:32:08.082Z,11.52
2016-10-24T07:33:07.842Z,11.51
2016-10-24T07:34:07.876Z,11.60
2016-10-24T07:35:07.545Z,11.71
2016-10-24T07:36:08.086Z,11.59
2016-10-24T07:37:07.701Z,11.64
2016-10-24T07:38:07.397Z,11.69
2016-10-24T07:39:07.985Z,11.60
2016-10-24T07:40:08.142Z,11.53
2016-10-24T07:41:07.625Z,11.62
2016-10-24T07:42:08.901Z,11.61
2016-10-24T07:43:07.460Z,11.64
2016-10-24T07:44:08.015Z,11.71
2016-10-24T07:45:07.660Z,11.70
2016-10-24T07:46:07.228Z,11.73
2016-10-24T07:47:07.879Z,11.78
2016-10-24T07:48:07.454Z,11.90
2016-10-24T07:49:08.060Z,11.82
2016-10-24T07:50:07.627Z,11.91
2016-10-24T07:51:07.132Z,11.90
2016-10-24T07:52:07.663Z,11.88
2016-10-24T07:53:07.224Z,11.86
2016-10-24T07:54:07.744Z,11.87
2016-10-24T07:55:07.233Z,11.91
2016-10-24T07:56:07.792Z,11.87
2016-10-24T07:57:07.333Z,11.87
2016-10-24T07:58:07.911Z,11.90
2016-10-24T07:59:07.508Z,11.94
2016-10-24T08:00:08.315Z,11.89
2016-10-24T08:01:08.111Z,11.88
2016-10-24T08:02:08.945Z,11.94
2016-10-24T08:03:07.568Z,11.87
2016-10-24T08:04:07.519Z,11.89
2016-10-24T08:05:07.724Z,11.90
2016-10-24T08:06:07.418Z,11.97
2016-10-24T08:07:08.301Z,11.92
2016-10-24T08:08:07.949Z,11.85
2016-10-24T08:09:07.476Z,11.90
2016-10-24T08:10:08.160Z,11.93
2016-10-24T08:11:07.718Z,12.05
2016-10-24T08:12:07.491Z,12.03
2016-10-24T08:13:08.737Z,12.06
2016-10-24T08:14:07.869Z,12.09
2016-10-24T08:15:08.392Z,12.12
2016-10-24T08:16:08.321Z,12.05
2016-10-24T08:17:08.064Z,12.08
2016-10-24T08:18:07.764Z,12.09
2016-10-24T08:19:22.231Z,12.14
2016-10-24T08:20:07.702Z,12.19
2016-10-24T08:21:07.308Z,12.21
2016-10-24T08:22:07.977Z,12.24
2016-10-24T08:23:07.848Z,12.25
2016-10-24T08:24:07.469Z,12.18
2016-10-24T08:25:07.997Z,12.23
2016-10-24T08:26:07.574Z,12.33
2016-10-24T08:27:07.134Z,12.21
2016-10-24T08:28:07.615Z,12.31
2016-10-24T08:29:07.181Z,12.35
2016-10-24T08:30:07.675Z,12.38
2016-10-24T08:31:07.193Z,12.38
2016-10-24T08:32:07.946Z,12.33
2016-10-24T08:33:07.690Z,12.43
2016-10-24T08:34:08.838Z,12.48
2016-10-24T08:35:07.603Z,12.39
2016-10-24T08:36:07.182Z,12.47
2016-10-24T08:37:08.583Z,12.47
2016-10-24T08:38:08.129Z,12.49
2016-10-24T08:39:07.792Z,12.55
2016-10-24T08:40:07.831Z,12.47
2016-10-24T08:41:07.407Z,12.59
2016-10-24T08:42:08.062Z,12.64
2016-10-24T08:43:07.798Z,12.66
2016-10-24T08:44:07.638Z,12.72
2016-10-24T08:45:07.158Z,12.79
2016-10-24T08:46:07.787Z,12.84
2016-10-24T08:47:07.321Z,12.89
2016-10-24T08:48:07.827Z,12.90
2016-10-24T08:49:07.435Z,12.92
2016-10-24T08:50:08.039Z,12.98
2016-10-24T08:51:07.662Z,13.04
2016-10-24T08:52:07.249Z,13.05
2016-10-24T08:53:07.732Z,13.09
2016-10-24T08:54:07.345Z,13.10
2016-10-24T08:55:07.922Z,13.15
2016-10-24T08:56:07.438Z,13.18
2016-10-24T08:57:07.884Z,13.22
2016-10-24T08:58:07.257Z,13.23
2016-10-24T08:59:07.791Z,13.23
2016-10-24T09:00:07.293Z,13.26
2016-10-24T09:01:07.851Z,13.27
2016-10-24T09:02:07.413Z,13.32
2016-10-24T09:03:08.216Z,13.34
2016-10-24T09:04:07.778Z,13.36
2016-10-24T09:05:07.383Z,13.36
2016-10-24T09:06:08.000Z,13.36
2016-10-24T09:07:07.563Z,13.34
2016-10-24T09:08:08.160Z,13.39
2016-10-24T09:09:07.788Z,13.41
2016-10-24T09:10:07.364Z,13.41
2016-10-24T09:11:07.969Z,13.44
2016-10-24T09:12:08.148Z,13.46
2016-10-24T09:13:09.196Z,13.50
2016-10-24T09:14:08.722Z,13.54
2016-10-24T09:15:08.251Z,13.58
2016-10-24T09:16:07.805Z,13.55
2016-10-24T09:17:07.516Z,13.57
2016-10-24T09:18:08.099Z,13.58
2016-10-24T09:19:07.789Z,13.61
2016-10-24T09:20:07.262Z,13.65
2016-10-24T09:21:07.871Z,13.63
2016-10-24T09:22:07.497Z,13.65
2016-10-24T09:23:08.545Z,13.67
2016-10-24T09:24:07.209Z,13.72
2016-10-24T09:25:07.705Z,13.76
2016-10-24T09:26:07.363Z,13.77
2016-10-24T09:27:07.882Z,13.79
2016-10-24T09:28:07.507Z,13.80
2016-10-24T09:29:08.176Z,13.82
2016-10-24T09:30:07.805Z,13.85
2016-10-24T09:31:07.422Z,13.92
2016-10-24T09:32:08.011Z,13.99
2016-10-24T09:33:07.632Z,13.96
2016-10-24T09:34:08.102Z,13.95
2016-10-24T09:35:07.683Z,13.96
2016-10-24T09:36:07.437Z,13.97
2016-10-24T09:37:08.132Z,14.02
2016-10-24T09:38:07.896Z,14.06
2016-10-24T09:39:07.422Z,14.10
2016-10-24T09:40:08.026Z,14.17
2016-10-24T09:41:07.610Z,14.20
2016-10-24T09:42:07.199Z,14.23
2016-10-24T09:43:07.769Z,14.29
2016-10-24T09:44:07.422Z,14.30
2016-10-24T09:45:07.906Z,14.35
2016-10-24T09:46:07.507Z,14.38
2016-10-24T09:47:08.021Z,14.45
2016-10-24T09:48:07.650Z,14.44
2016-10-24T09:49:07.410Z,14.52
2016-10-24T09:50:08.018Z,14.52
2016-10-24T09:51:07.774Z,14.54
2016-10-24T09:52:07.317Z,14.58
2016-10-24T09:53:07.862Z,14.62
2016-10-24T09:54:07.335Z,14.63
2016-10-24T09:55:07.938Z,14.63
2016-10-24T09:56:07.555Z,14.60
2016-10-24T09:57:08.483Z,14.67
2016-10-24T09:58:08.176Z,14.66
2016-10-24T09:59:07.921Z,14.64
2016-10-24T10:00:07.720Z,14.63
2016-10-24T10:01:07.265Z,14.61
2016-10-24T10:02:07.814Z,14.64
2016-10-24T10:03:07.680Z,14.69
2016-10-24T10:04:07.283Z,14.73
2016-10-24T10:05:07.938Z,14.67
2016-10-24T10:06:07.851Z,14.68
2016-10-24T10:07:07.438Z,14.77
2016-10-24T10:08:08.077Z,14.79
2016-10-24T10:09:07.668Z,14.78
2016-10-24T10:10:07.296Z,14.76
2016-10-24T10:11:07.808Z,14.74
2016-10-24T10:12:07.360Z,14.81
2016-10-24T10:13:07.888Z,14.86
2016-10-24T10:14:07.431Z,14.88
2016-10-24T10:15:08.043Z,14.87
2016-10-24T10:16:07.590Z,14.95
2016-10-24T10:17:07.298Z,14.96
2016-10-24T10:18:07.954Z,14.92
2016-10-24T10:19:07.633Z,14.92
2016-10-24T10:20:08.162Z,14.93
2016-10-24T10:21:08.095Z,14.93
2016-10-24T10:22:07.811Z,14.93
2016-10-24T10:23:07.405Z,14.95
2016-10-24T10:24:08.001Z,15.02
2016-10-24T10:25:07.164Z,15.04
2016-10-24T10:26:07.735Z,15.05
2016-10-24T10:27:07.303Z,15.04
2016-10-24T10:28:07.934Z,15.07
2016-10-24T10:29:07.598Z,15.10
2016-10-24T10:30:07.049Z,15.08
2016-10-24T10:31:07.562Z,15.09
2016-10-24T10:32:08.054Z,15.09
2016-10-24T10:33:07.625Z,15.09
2016-10-24T10:34:07.214Z,15.11
2016-10-24T10:35:07.785Z,15.14
2016-10-24T10:36:07.337Z,15.13
2016-10-24T10:37:07.863Z,15.13
2016-10-24T10:38:07.339Z,15.15
2016-10-24T10:39:07.851Z,15.19
2016-10-24T10:40:07.471Z,15.22
2016-10-24T10:41:08.082Z,15.22
2016-10-24T10:42:07.882Z,15.25
2016-10-24T10:43:07.423Z,15.26
2016-10-24T10:44:08.081Z,15.31
2016-10-24T10:45:07.737Z,15.37
2016-10-24T10:46:07.399Z,15.40
2016-10-24T10:47:07.577Z,15.43
2016-10-24T10:48:07.184Z,15.46
2016-10-24T10:49:07.867Z,15.49
2016-10-24T10:50:07.451Z,15.50
2016-10-24T10:51:08.065Z,15.49
2016-10-24T10:52:07.570Z,15.53
2016-10-24T10:53:07.157Z,15.58
2016-10-24T10:54:07.735Z,15.62
2016-10-24T10:55:07.269Z,15.66
2016-10-24T10:56:07.764Z,15.67
2016-10-24T10:57:07.461Z,15.68
2016-10-24T10:58:08.029Z,15.70
2016-10-24T10:59:07.574Z,15.74
2016-10-24T11:00:07.160Z,15.75
2016-10-24T11:01:07.882Z,15.70
2016-10-24T11:02:08.077Z,15.71
2016-10-24T11:03:08.219Z,15.70
2016-10-24T11:04:07.627Z,15.73
2016-10-24T11:05:07.115Z,15.80
2016-10-24T11:06:07.439Z,15.85
2016-10-24T11:07:07.984Z,15.83
2016-10-24T11:08:07.590Z,15.84
2016-10-24T11:09:07.104Z,15.86
2016-10-24T11:10:07.561Z,15.88
2016-10-24T11:11:08.199Z,15.97
2016-10-24T11:12:07.783Z,16.00
2016-10-24T11:13:07.270Z,15.98
2016-10-24T11:14:07.778Z,15.98
2016-10-24T11:15:08.252Z,16.02
2016-10-24T11:16:07.896Z,16.02
2016-10-24T11:17:07.562Z,16.05
2016-10-24T11:18:07.100Z,16.05
2016-10-24T11:19:07.824Z,16.12
2016-10-24T11:20:07.442Z,16.12
2016-10-24T11:21:08.025Z,16.09
2016-10-24T11:22:07.596Z,16.06
2016-10-24T11:23:07.112Z,16.07
2016-10-24T11:24:07.665Z,16.05
2016-10-24T11:25:07.236Z,16.01
2016-10-24T11:26:07.878Z,15.99
2016-10-24T11:27:08.121Z,16.00
2016-10-24T11:28:07.668Z,16.13
2016-10-24T11:29:07.234Z,16.16
2016-10-24T11:30:07.796Z,16.13
2016-10-24T11:31:07.438Z,16.15
2016-10-24T11:32:07.986Z,16.10
2016-10-24T11:33:07.571Z,16.09
2016-10-24T11:34:07.086Z,16.12
2016-10-24T11:35:07.682Z,16.11
2016-10-24T11:36:07.269Z,16.11
2016-10-24T11:37:08.111Z,16.12
2016-10-24T11:38:07.718Z,16.19
2016-10-24T11:39:07.298Z,16.34
2016-10-24T11:40:07.875Z,16.37
2016-10-24T11:41:07.563Z,16.33
2016-10-24T11:42:08.095Z,16.33
2016-10-24T11:43:07.689Z,16.26
2016-10-24T11:44:07.911Z,16.23
2016-10-24T11:45:07.370Z,16.25
2016-10-24T11:46:08.099Z,16.18
2016-10-24T11:47:07.834Z,16.17
2016-10-24T11:48:07.557Z,16.17
2016-10-24T11:49:08.416Z,16.10
2016-10-24T11:50:08.022Z,16.06
2016-10-24T11:51:07.635Z,16.07
2016-10-24T11:52:07.078Z,16.07
2016-10-24T11:53:07.743Z,16.13
2016-10-24T11:54:07.334Z,16.11
2016-10-24T11:55:07.908Z,16.09
2016-10-24T11:56:07.532Z,16.15
2016-10-24T11:57:08.118Z,16.17
2016-10-24T11:58:07.748Z,16.17
2016-10-24T11:59:07.266Z,16.21
2016-10-24T12:00:07.745Z,16.23
2016-10-24T12:01:07.203Z,16.29
2016-10-24T12:02:07.834Z,16.28
2016-10-24T12:03:07.345Z,16.26
2016-10-24T12:04:07.976Z,16.22
2016-10-24T12:05:07.613Z,16.32
2016-10-24T12:06:07.227Z,16.29
2016-10-24T12:07:07.825Z,16.34
2016-10-24T12:08:07.375Z,16.35
2016-10-24T12:09:07.967Z,16.37
2016-10-24T12:10:07.639Z,16.36
2016-10-24T12:11:07.305Z,16.39
2016-10-24T12:12:07.859Z,16.40
2016-10-24T12:13:07.372Z,16.42
2016-10-24T12:14:07.803Z,16.52
2016-10-24T12:15:07.476Z,16.52
2016-10-24T12:16:08.088Z,16.49
2016-10-24T12:17:07.828Z,16.52
2016-10-24T12:18:07.308Z,16.47
2016-10-24T12:19:07.881Z,16.53
2016-10-24T12:20:07.451Z,16.53
2016-10-24T12:21:08.187Z,16.55
2016-10-24T12:22:07.820Z,16.51
2016-10-24T12:23:07.427Z,16.50
2016-10-24T12:24:07.978Z,16.51
2016-10-24T12:25:07.487Z,16.50
2016-10-24T12:26:08.082Z,16.49
2016-10-24T12:27:07.630Z,16.52
2016-10-24T12:28:07.199Z,16.50
2016-10-24T12:29:07.673Z,16.46
2016-10-24T12:30:07.290Z,16.48
2016-10-24T12:31:07.901Z,16.45
2016-10-24T12:32:07.486Z,16.49
2016-10-24T12:33:08.037Z,16.51
2016-10-24T12:34:09.812Z,16.51
2016-10-24T12:35:07.353Z,16.54
2016-10-24T12:36:08.005Z,16.53
2016-10-24T12:37:07.586Z,16.57
2016-10-24T12:38:07.166Z,16.53
2016-10-24T12:39:07.765Z,16.57
2016-10-24T12:40:07.269Z,16.57
2016-10-24T12:41:07.793Z,16.60
2016-10-24T12:42:07.377Z,16.61
2016-10-24T12:43:07.996Z,16.58
2016-10-24T12:44:07.593Z,16.56
2016-10-24T12:45:07.097Z,16.53
2016-10-24T12:46:07.580Z,16.54
2016-10-24T12:47:07.171Z,16.53
2016-10-24T12:48:07.763Z,16.50
2016-10-24T12:49:07.380Z,16.53
2016-10-24T12:50:07.913Z,16.53
2016-10-24T12:51:07.401Z,16.51
2016-10-24T12:52:08.030Z,16.51